createdAt,value
2019-05-30T00:01:22.861Z,10.81
2019-05-30T00:03:56.013Z,10.33
2019-05-30T00:06:28.256Z,9.91
2019-05-30T00:09:00.524Z,9.50
2019-05-30T00:11:32.949Z,9.13
2019-05-30T00:14:05.069Z,8.78
2019-05-30T00:16:36.754Z,8.43
2019-05-30T00:19:08.571Z,8.81
2019-05-30T00:21:41.256Z,9.89
2019-05-30T00:24:12.998Z,10.78
2019-05-30T00:26:44.716Z,11.55
2019-05-30T00:29:16.538Z,11.55
2019-05-30T00:31:48.257Z,10.92
2019-05-30T00:34:19.987Z,10.34
2019-05-30T00:36:51.802Z,9.88
2019-05-30T00:39:23.518Z,9.41
2019-05-30T00:41:56.019Z,8.96
2019-05-30T00:44:28.236Z,8.57
2019-05-30T00:47:00.636Z,8.19
2019-05-30T00:49:32.748Z,8.61
2019-05-30T00:52:05.123Z,9.68
2019-05-30T00:54:39.603Z,10.57
2019-05-30T00:57:11.327Z,11.33
2019-05-30T00:59:43.153Z,11.31
2019-05-30T01:02:14.883Z,10.67
2019-05-30T01:04:46.603Z,10.09
2019-05-30T01:07:18.435Z,9.62
2019-05-30T01:09:50.145Z,9.21
2019-05-30T01:12:21.941Z,8.79
2019-05-30T01:14:53.716Z,8.37
2019-05-30T01:17:25.431Z,8.01
2019-05-30T01:19:57.164Z,7.64
2019-05-30T01:22:29.752Z,8.09
2019-05-30T01:25:01.670Z,9.11
2019-05-30T01:27:33.385Z,9.96
2019-05-30T01:30:08.449Z,10.81
2019-05-30T01:32:40.282Z,11.47
2019-05-30T01:35:12.333Z,11.40
2019-05-30T01:37:44.062Z,10.65
2019-05-30T01:40:17.594Z,10.05
2019-05-30T01:42:49.213Z,9.51
2019-05-30T01:45:21.005Z,9.04
2019-05-30T01:47:52.636Z,8.60
2019-05-30T01:50:24.531Z,8.16
2019-05-30T01:52:56.167Z,7.78
2019-05-30T01:55:28.831Z,7.41
2019-05-30T01:58:01.558Z,7.73
2019-05-30T02:00:41.581Z,8.84
2019-05-30T02:03:13.107Z,9.89
2019-05-30T02:05:44.827Z,10.75
2019-05-30T02:08:16.549Z,10.75
2019-05-30T02:10:48.363Z,10.09
2019-05-30T02:13:20.093Z,9.51
2019-05-30T02:15:51.814Z,9.02
2019-05-30T02:18:23.654Z,8.59
2019-05-30T02:20:55.366Z,8.16
2019-05-30T02:23:27.089Z,7.80
2019-05-30T02:26:00.093Z,7.42
2019-05-30T02:28:31.902Z,7.80
2019-05-30T02:31:05.258Z,8.82
2019-05-30T02:33:36.935Z,9.80
2019-05-30T02:36:10.968Z,10.64
2019-05-30T02:38:42.005Z,10.60
2019-05-30T02:41:13.720Z,9.89
2019-05-30T02:43:45.547Z,9.30
2019-05-30T02:46:17.258Z,8.81
2019-05-30T02:48:58.761Z,8.35
2019-05-30T02:51:22.295Z,7.93
2019-05-30T02:53:54.009Z,7.59
2019-05-30T02:56:26.705Z,7.22
2019-05-30T02:58:58.520Z,7.67
2019-05-30T03:01:30.137Z,8.81
2019-05-30T03:04:03.878Z,9.80
2019-05-30T03:06:35.918Z,10.67
2019-05-30T03:09:10.758Z,10.67
2019-05-30T03:11:42.206Z,9.96
2019-05-30T03:14:19.000Z,9.43
2019-05-30T03:16:47.877Z,8.95
2019-05-30T03:19:19.869Z,8.56
2019-05-30T03:21:51.927Z,8.16
2019-05-30T03:24:23.752Z,7.81
2019-05-30T03:26:55.537Z,7.54
2019-05-30T03:29:27.264Z,8.02
2019-05-30T03:32:33.831Z,9.08
2019-05-30T03:34:33.245Z,10.23
2019-05-30T03:37:09.330Z,11.59
2019-05-30T03:39:38.590Z,13.21
2019-05-30T03:42:11.775Z,13.89
2019-05-30T03:44:43.950Z,14.15
2019-05-30T03:47:19.092Z,14.60
2019-05-30T03:49:52.061Z,15.17
2019-05-30T03:52:25.798Z,15.81
2019-05-30T03:54:57.495Z,16.40
2019-05-30T03:57:42.209Z,16.95
2019-05-30T04:00:38.658Z,17.69
2019-05-30T04:03:46.453Z,18.36
2019-05-30T04:06:23.584Z,19.17
2019-05-30T04:08:59.900Z,19.86
2019-05-30T04:11:41.965Z,20.58
2019-05-30T04:14:19.380Z,21.27
2019-05-30T04:16:50.957Z,21.95
2019-05-30T04:19:22.797Z,22.58
2019-05-30T04:21:54.638Z,23.23
2019-05-30T04:24:26.397Z,23.81
2019-05-30T04:26:58.141Z,24.28
2019-05-30T04:29:29.871Z,24.85
2019-05-30T04:32:02.588Z,25.47
2019-05-30T04:34:34.295Z,26.03
2019-05-30T04:37:06.028Z,26.55
2019-05-30T04:39:37.858Z,27.03
2019-05-30T04:42:11.169Z,27.44
2019-05-30T04:44:42.907Z,27.83
2019-05-30T04:47:15.999Z,28.24
2019-05-30T04:49:47.947Z,28.64
2019-05-30T04:52:23.909Z,29.06
2019-05-30T04:54:53.011Z,29.54
2019-05-30T04:57:26.875Z,30.02
2019-05-30T04:59:58.073Z,30.44
2019-05-30T05:02:29.833Z,30.85
2019-05-30T05:05:01.563Z,31.28
2019-05-30T05:07:34.231Z,31.64
2019-05-30T05:10:09.414Z,31.95
2019-05-30T05:12:41.332Z,32.37
2019-05-30T05:15:14.320Z,32.79
2019-05-30T05:17:46.231Z,33.21
2019-05-30T05:20:19.367Z,33.55
2019-05-30T05:22:51.690Z,33.93
2019-05-30T05:25:23.644Z,34.24
2019-05-30T05:27:55.683Z,34.54
2019-05-30T05:30:28.678Z,34.84
2019-05-30T05:33:00.439Z,35.16
2019-05-30T05:35:32.164Z,35.47
2019-05-30T05:38:03.907Z,35.71
2019-05-30T05:40:35.731Z,35.92
2019-05-30T05:43:07.487Z,36.05
2019-05-30T05:45:39.211Z,36.23
2019-05-30T05:48:10.949Z,36.35
2019-05-30T05:50:42.760Z,36.46
2019-05-30T05:53:14.497Z,36.71
2019-05-30T05:55:46.225Z,36.78
2019-05-30T05:58:19.109Z,36.94
2019-05-30T06:00:51.289Z,36.99
2019-05-30T06:03:24.154Z,36.99
2019-05-30T06:05:56.487Z,37.09
2019-05-30T06:08:28.997Z,37.19
2019-05-30T06:11:00.824Z,37.29
2019-05-30T06:13:32.553Z,37.28
2019-05-30T06:16:04.721Z,37.30
2019-05-30T06:18:36.347Z,37.33
2019-05-30T06:21:08.179Z,37.33
2019-05-30T06:23:39.912Z,37.47
2019-05-30T06:26:11.640Z,37.61
2019-05-30T06:28:43.378Z,37.77
2019-05-30T06:31:15.225Z,37.87
2019-05-30T06:33:46.958Z,37.81
2019-05-30T06:36:18.865Z,37.91
2019-05-30T06:38:51.013Z,37.90
2019-05-30T06:41:23.527Z,37.94
2019-05-30T06:43:55.481Z,37.87
2019-05-30T06:46:28.294Z,37.87
2019-05-30T06:49:00.533Z,37.83
2019-05-30T06:51:32.271Z,37.90
2019-05-30T06:54:04.100Z,37.81
2019-05-30T06:56:35.830Z,37.87
2019-05-30T06:59:07.596Z,37.83
2019-05-30T07:01:39.302Z,37.77
2019-05-30T07:04:11.504Z,37.77
2019-05-30T07:06:44.045Z,37.76
2019-05-30T07:09:15.852Z,37.85
2019-05-30T07:11:47.891Z,37.78
2019-05-30T07:14:21.133Z,37.83
2019-05-30T07:16:52.965Z,37.83
2019-05-30T07:19:25.345Z,37.83
2019-05-30T07:21:57.408Z,37.78
2019-05-30T07:24:29.910Z,37.70
2019-05-30T07:27:04.198Z,37.67
2019-05-30T07:29:36.027Z,37.68
2019-05-30T07:32:07.861Z,37.71
2019-05-30T07:34:39.609Z,37.68
2019-05-30T07:37:11.343Z,37.64
2019-05-30T07:39:43.081Z,37.56
2019-05-30T07:42:14.804Z,37.43
2019-05-30T07:44:46.630Z,37.32
2019-05-30T07:47:18.365Z,37.28
2019-05-30T07:49:50.091Z,37.22
2019-05-30T07:52:22.284Z,36.95
2019-05-30T07:54:53.917Z,36.84
2019-05-30T07:57:26.137Z,36.88
2019-05-30T07:59:58.367Z,36.75
2019-05-30T08:02:30.111Z,36.53
2019-05-30T08:05:01.928Z,36.33
2019-05-30T08:07:34.982Z,36.16
2019-05-30T08:10:09.965Z,35.98
2019-05-30T08:12:41.748Z,35.71
2019-05-30T08:15:14.724Z,35.39
2019-05-30T08:17:46.552Z,34.84
2019-05-30T08:20:20.228Z,34.02
2019-05-30T08:22:51.853Z,33.08
2019-05-30T08:25:23.677Z,32.23
2019-05-30T08:27:55.406Z,31.49
2019-05-30T08:30:28.316Z,30.75
2019-05-30T08:33:00.508Z,30.03
2019-05-30T08:35:46.898Z,29.41
2019-05-30T08:38:05.772Z,28.72
2019-05-30T08:40:37.817Z,28.12
2019-05-30T08:43:09.921Z,27.58
2019-05-30T08:45:41.808Z,27.05
2019-05-30T08:48:14.773Z,26.52
2019-05-30T08:50:46.408Z,26.06
2019-05-30T08:53:18.612Z,25.62
2019-05-30T08:55:50.242Z,25.13
2019-05-30T08:58:22.079Z,24.69
2019-05-30T09:00:53.812Z,24.24
2019-05-30T09:03:25.542Z,23.92
2019-05-30T09:06:03.686Z,23.58
2019-05-30T09:08:30.606Z,23.30
2019-05-30T09:11:02.334Z,23.05
2019-05-30T09:13:34.163Z,22.82
2019-05-30T09:16:06.074Z,22.61
2019-05-30T09:18:38.556Z,22.38
2019-05-30T09:21:11.535Z,22.19
2019-05-30T09:23:44.015Z,22.01
2019-05-30T09:26:15.682Z,21.81
2019-05-30T09:28:48.301Z,21.69
2019-05-30T09:31:21.363Z,21.56
2019-05-30T09:33:53.100Z,21.40
2019-05-30T09:36:24.826Z,21.22
2019-05-30T09:38:56.668Z,21.12
2019-05-30T09:41:28.391Z,21.02
2019-05-30T09:44:00.121Z,20.92
2019-05-30T09:46:31.843Z,20.92
2019-05-30T09:49:03.653Z,20.91
2019-05-30T09:51:35.468Z,20.91
2019-05-30T09:54:07.259Z,20.95
2019-05-30T09:56:38.886Z,20.94
2019-05-30T09:59:10.718Z,20.94
2019-05-30T10:01:43.167Z,20.96
2019-05-30T10:04:15.771Z,21.01
2019-05-30T10:06:48.449Z,21.02
2019-05-30T10:09:20.496Z,21.07
2019-05-30T10:11:53.400Z,21.07
2019-05-30T10:14:25.529Z,21.07
2019-05-30T10:16:58.156Z,21.05
2019-05-30T10:19:30.314Z,21.07
2019-05-30T10:22:02.079Z,21.09
2019-05-30T10:24:33.807Z,21.12
2019-05-30T10:27:05.533Z,21.12
2019-05-30T10:29:37.646Z,21.12
2019-05-30T10:32:09.368Z,21.14
2019-05-30T10:34:41.102Z,21.19
2019-05-30T10:37:12.939Z,21.24
2019-05-30T10:39:45.681Z,21.24
2019-05-30T10:42:18.228Z,21.30
2019-05-30T10:44:51.863Z,21.36
2019-05-30T10:47:23.595Z,21.40
2019-05-30T10:49:55.429Z,21.41
2019-05-30T10:52:27.150Z,21.46
2019-05-30T10:54:58.889Z,21.47
2019-05-30T10:57:30.620Z,21.47
2019-05-30T11:00:02.618Z,21.48
2019-05-30T11:02:34.527Z,21.50
2019-05-30T11:05:10.658Z,21.46
2019-05-30T11:08:06.337Z,21.43
2019-05-30T11:10:46.732Z,21.46
2019-05-30T11:13:19.001Z,21.48
2019-05-30T11:15:51.721Z,21.48
2019-05-30T11:18:23.729Z,21.47
2019-05-30T11:20:56.411Z,21.46
2019-05-30T11:23:28.181Z,21.50
2019-05-30T11:25:59.926Z,21.51
2019-05-30T11:28:31.661Z,21.53
2019-05-30T11:31:04.808Z,21.54
2019-05-30T11:33:37.090Z,21.56
2019-05-30T11:36:08.817Z,21.54
2019-05-30T11:38:40.552Z,21.56
2019-05-30T11:41:12.385Z,21.53
2019-05-30T11:43:44.191Z,21.56
2019-05-30T11:46:15.826Z,21.61
2019-05-30T11:48:47.660Z,21.60
2019-05-30T11:51:19.390Z,21.58
2019-05-30T11:53:51.822Z,21.54
2019-05-30T11:56:23.496Z,21.48
2019-05-30T11:58:55.999Z,21.46
2019-05-30T12:01:27.638Z,21.47
2019-05-30T12:04:00.687Z,21.46
2019-05-30T12:06:33.995Z,21.46
2019-05-30T12:09:08.061Z,21.44
2019-05-30T12:11:39.619Z,21.43
2019-05-30T12:14:11.345Z,21.43
2019-05-30T12:16:43.083Z,21.41
2019-05-30T12:19:14.825Z,21.46
2019-05-30T12:21:46.554Z,21.47
2019-05-30T12:24:18.578Z,21.46
2019-05-30T12:26:50.414Z,21.47
2019-05-30T12:29:22.233Z,21.44
2019-05-30T12:31:57.565Z,21.44
2019-05-30T12:34:27.304Z,21.41
2019-05-30T12:36:59.047Z,21.41
2019-05-30T12:39:32.715Z,21.40
2019-05-30T12:42:04.727Z,21.37
2019-05-30T12:44:37.989Z,21.34
2019-05-30T12:47:09.706Z,21.31
2019-05-30T12:49:42.401Z,21.30
2019-05-30T12:52:14.136Z,21.30
2019-05-30T12:54:45.977Z,21.27
2019-05-30T12:57:17.721Z,21.22
2019-05-30T12:59:49.448Z,21.19
2019-05-30T13:02:21.198Z,21.13
2019-05-30T13:04:52.925Z,21.13
2019-05-30T13:07:24.784Z,21.13
2019-05-30T13:09:57.129Z,21.07
2019-05-30T13:12:29.162Z,21.05
2019-05-30T13:15:01.912Z,21.05
2019-05-30T13:17:34.241Z,21.07
2019-05-30T13:20:10.813Z,21.09
2019-05-30T13:22:43.593Z,21.10
2019-05-30T13:25:18.383Z,21.12
2019-05-30T13:27:50.144Z,21.14
2019-05-30T13:30:22.471Z,21.16
2019-05-30T13:32:54.718Z,21.19
2019-05-30T13:35:28.237Z,21.22
2019-05-30T15:36:39.338Z,21.01
2019-05-30T15:39:11.085Z,20.99
2019-05-30T15:41:42.808Z,20.96
2019-05-30T15:44:15.715Z,20.91
2019-05-30T15:46:47.907Z,20.91
2019-05-30T15:49:20.631Z,20.92
2019-05-30T15:51:52.670Z,20.89
2019-05-30T15:54:24.411Z,20.88
2019-05-30T15:56:56.214Z,20.84
2019-05-30T15:59:27.961Z,20.82
2019-05-30T16:01:59.721Z,20.79
2019-05-30T16:04:31.448Z,20.74
2019-05-30T16:07:03.203Z,20.72
2019-05-30T16:09:46.777Z,20.67
2019-05-30T16:12:13.007Z,20.67
2019-05-30T16:14:49.729Z,20.60
2019-05-30T16:17:21.824Z,20.54
2019-05-30T16:19:53.533Z,20.50
2019-05-30T16:22:25.570Z,20.44
2019-05-30T16:24:57.504Z,20.39
2019-05-30T16:27:31.323Z,20.37
2019-05-30T16:30:03.829Z,20.29
2019-05-30T16:32:36.062Z,20.22
2019-05-30T16:35:09.050Z,20.20
2019-05-30T16:37:41.022Z,20.16
2019-05-30T16:40:14.495Z,20.09
2019-05-30T16:42:46.555Z,20.06
2019-05-30T16:45:24.631Z,20.02
2019-05-30T16:47:53.664Z,19.95
2019-05-30T16:50:27.014Z,19.89
2019-05-30T16:53:01.335Z,19.86
2019-05-30T16:55:33.134Z,19.84
2019-05-30T16:58:05.198Z,19.79
2019-05-30T17:00:36.865Z,19.74
2019-05-30T17:03:08.746Z,19.68
2019-05-30T17:05:40.605Z,19.64
2019-05-30T17:08:12.470Z,19.58
2019-05-30T17:10:44.298Z,19.57
2019-05-30T17:13:15.941Z,19.51
2019-05-30T17:15:48.481Z,19.49
2019-05-30T17:18:20.304Z,19.44
2019-05-30T17:20:52.177Z,19.39
2019-05-30T17:23:24.854Z,19.34
2019-05-30T17:25:57.030Z,19.25
2019-05-30T17:28:30.096Z,19.21
2019-05-30T17:31:02.014Z,19.16
2019-05-30T17:33:33.859Z,19.08
2019-05-30T17:36:06.125Z,19.02
2019-05-30T17:38:37.893Z,18.99
2019-05-30T17:41:09.761Z,18.94
2019-05-30T17:43:41.951Z,18.85
2019-05-30T17:46:13.790Z,18.78
2019-05-30T17:48:45.837Z,18.71
2019-05-30T17:51:19.775Z,18.66
2019-05-30T17:53:51.504Z,18.59
2019-05-30T17:56:23.968Z,18.49
2019-05-30T17:58:56.078Z,18.42
2019-05-30T18:01:30.559Z,18.37
2019-05-30T18:04:02.505Z,18.27
2019-05-30T18:06:34.299Z,18.22
2019-05-30T18:09:08.406Z,18.16
2019-05-30T18:11:39.960Z,18.08
2019-05-30T18:14:11.816Z,18.01
2019-05-30T18:16:44.449Z,17.92
2019-05-30T18:19:16.173Z,17.85
2019-05-30T18:21:47.944Z,17.76
2019-05-30T18:24:21.435Z,17.69
2019-05-30T18:26:53.252Z,17.57
2019-05-30T18:29:26.045Z,17.52
2019-05-30T18:31:59.554Z,17.40
2019-05-30T18:34:32.786Z,17.30
2019-05-30T18:37:05.293Z,17.19
2019-05-30T18:39:36.934Z,17.08
2019-05-30T18:42:08.686Z,16.97
2019-05-30T18:44:40.442Z,16.83
2019-05-30T18:47:12.179Z,16.68
2019-05-30T18:49:44.019Z,16.52
2019-05-30T18:52:17.357Z,16.35
2019-05-30T18:54:49.306Z,16.15
2019-05-30T18:57:21.054Z,15.95
2019-05-30T18:59:52.907Z,15.78
2019-05-30T19:02:25.134Z,15.60
2019-05-30T19:04:57.120Z,15.42
2019-05-30T19:07:37.194Z,15.24
2019-05-30T19:10:11.543Z,15.05
2019-05-30T19:12:43.722Z,14.86
2019-05-30T19:15:18.031Z,14.69
2019-05-30T19:17:52.459Z,14.48
2019-05-30T19:20:25.551Z,14.31
2019-05-30T19:22:57.670Z,14.14
2019-05-30T19:25:29.971Z,13.97
2019-05-30T19:28:02.155Z,13.78
2019-05-30T19:30:34.889Z,13.65
2019-05-30T19:33:08.570Z,13.46
2019-05-30T19:35:41.530Z,13.31
2019-05-30T19:38:15.215Z,13.14
2019-05-30T19:40:47.187Z,12.99
2019-05-30T19:43:18.831Z,12.83
2019-05-30T19:45:50.766Z,12.72
2019-05-30T19:48:23.664Z,12.56
2019-05-30T19:50:55.423Z,12.44
2019-05-30T19:53:28.793Z,12.99
2019-05-30T19:56:01.448Z,14.25
2019-05-30T19:58:33.500Z,15.35
2019-05-30T20:01:07.671Z,16.38
2019-05-30T20:03:45.164Z,16.39
2019-05-30T20:06:14.747Z,15.83
2019-05-30T20:08:55.514Z,15.37
2019-05-30T20:11:26.684Z,14.97
2019-05-30T20:13:58.671Z,14.62
2019-05-30T20:16:31.391Z,14.24
2019-05-30T20:19:04.871Z,13.96
2019-05-30T20:21:37.790Z,13.63
2019-05-30T20:24:10.254Z,13.37
2019-05-30T20:26:45.584Z,13.07
2019-05-30T20:29:21.167Z,12.82
2019-05-30T20:31:58.658Z,13.33
2019-05-30T20:34:31.372Z,14.52
2019-05-30T20:37:09.626Z,15.55
2019-05-30T20:39:50.133Z,15.63
2019-05-30T20:42:24.667Z,15.07
2019-05-30T20:44:56.589Z,14.60
2019-05-30T20:47:36.021Z,14.21
2019-05-30T20:50:10.318Z,13.86
2019-05-30T20:52:45.592Z,13.53
2019-05-30T20:55:18.722Z,13.20
2019-05-30T20:57:50.351Z,12.90
2019-05-30T21:00:25.501Z,12.66
2019-05-30T21:02:59.898Z,12.40
2019-05-30T21:05:31.661Z,12.89
2019-05-30T21:08:06.152Z,14.00
2019-05-30T21:10:41.526Z,15.01
2019-05-30T21:13:16.734Z,15.95
2019-05-30T21:15:50.825Z,15.87
2019-05-30T21:18:25.292Z,15.25
2019-05-30T21:20:57.694Z,14.75
2019-05-30T21:23:29.639Z,14.28
2019-05-30T21:26:01.448Z,13.90
2019-05-30T21:28:33.105Z,13.55
2019-05-30T21:31:04.828Z,13.20
2019-05-30T21:33:37.519Z,12.92
2019-05-30T21:36:09.666Z,12.59
2019-05-30T21:38:41.947Z,13.06
2019-05-30T21:41:13.933Z,14.17
2019-05-30T21:43:46.790Z,15.14
2019-05-30T21:46:19.180Z,15.97
2019-05-30T21:48:50.916Z,15.87
2019-05-30T21:51:22.651Z,15.25
2019-05-30T21:53:55.735Z,14.75
2019-05-30T21:56:27.417Z,14.31
2019-05-30T21:59:00.016Z,13.87
2019-05-30T22:01:34.769Z,13.53
2019-05-30T22:04:08.139Z,13.20
2019-05-30T22:06:40.843Z,12.86
2019-05-30T22:09:12.797Z,12.56
2019-05-30T22:11:45.577Z,13.03
2019-05-30T22:14:17.870Z,14.04
2019-05-30T22:16:50.248Z,14.91
2019-05-30T22:19:23.016Z,15.66
2019-05-30T22:21:54.820Z,15.55
2019-05-30T22:24:26.982Z,14.98
2019-05-30T22:26:58.617Z,14.47
2019-05-30T22:29:30.373Z,14.01
2019-05-30T22:32:02.788Z,13.62
2019-05-30T22:34:34.528Z,13.30
2019-05-30T22:37:06.581Z,12.90
2019-05-30T22:39:38.622Z,12.56
2019-05-30T22:42:10.379Z,12.96
2019-05-30T22:44:42.101Z,13.98
2019-05-30T22:47:13.946Z,14.94
2019-05-30T22:49:46.700Z,15.72
2019-05-30T22:52:18.794Z,15.63
2019-05-30T22:54:51.225Z,14.98
2019-05-30T22:57:23.360Z,14.48
2019-05-30T22:59:55.199Z,14.00
2019-05-30T23:02:26.932Z,13.53
2019-05-30T23:04:58.669Z,13.14
2019-05-30T23:07:30.535Z,12.76
2019-05-30T23:10:05.774Z,12.40
2019-05-30T23:12:37.603Z,12.06
2019-05-30T23:15:10.542Z,12.56
2019-05-30T23:17:42.376Z,13.59
2019-05-30T23:20:15.970Z,14.51
2019-05-30T23:22:48.837Z,15.31
2019-05-30T23:25:21.904Z,15.24
2019-05-30T23:27:53.733Z,14.58
2019-05-30T23:30:27.066Z,14.03
2019-05-30T23:32:58.773Z,13.61
2019-05-30T23:35:30.511Z,13.17
2019-05-30T23:38:02.306Z,12.80
2019-05-30T23:40:35.619Z,12.43
2019-05-30T23:43:07.581Z,12.12
2019-05-30T23:45:39.395Z,12.56
2019-05-30T23:48:11.122Z,13.61
2019-05-30T23:50:43.023Z,14.53
2019-05-30T23:53:14.651Z,15.32
2019-05-30T23:55:46.481Z,15.28
2019-05-30T23:58:18.211Z,14.62
